Time;durP1;ratioP1;P1;durP2;ratioP2;P2;SDS_P1;SDS_P2;PMS_P1;PMS_P2;Temp;Humidity;BMP_temperature;BMP_pressure;BME280_temperature;BME280_humidity;BME280_pressure;Samples;Min_cycle;Max_cycle;Signal;HPM_P1;HPM_P2
2022/08/17 00:00:14;;;;;;;5.30;4.90;;;25.60;38.70;;;;;;5063470;28;21013;-81
2022/08/17 00:03:07;;;;;;;4.80;4.37;;;25.50;38.90;;;;;;5059285;28;20518;-81
2022/08/17 00:05:40;;;;;;;5.00;4.60;;;25.60;38.30;;;;;;5070596;28;20462;-82
2022/08/17 00:08:09;;;;;;;5.53;4.23;;;25.50;39.10;;;;;;5070127;28;20466;-82
2022/08/17 00:10:38;;;;;;;5.70;5.30;;;25.50;40.40;;;;;;5070008;28;20458;-82
2022/08/17 00:13:08;;;;;;;6.40;5.90;;;25.50;41.00;;;;;;5069194;28;20474;-82
2022/08/17 00:15:36;;;;;;;5.50;5.00;;;25.40;39.10;;;;;;5069442;28;20471;-81
2022/08/17 00:18:05;;;;;;;6.30;5.70;;;25.40;41.20;;;;;;5070028;28;20457;-81
2022/08/17 00:20:54;;;;;;;5.67;5.20;;;25.40;40.20;;;;;;5067742;28;20573;-81
2022/08/17 00:23:24;;;;;;;6.90;5.67;;;25.40;40.50;;;;;;5068864;28;20490;-82
2022/08/17 00:25:52;;;;;;;4.83;4.53;;;25.30;41.60;;;;;;5068128;28;20505;-82
2022/08/17 00:28:21;;;;;;;5.20;4.70;;;25.30;42.50;;;;;;5069493;28;20458;-81
2022/08/17 00:30:50;;;;;;;5.60;5.17;;;25.30;42.90;;;;;;5068717;28;20458;-81
2022/08/17 00:33:24;;;;;;;5.63;5.07;;;25.30;39.00;;;;;;5068437;28;20544;-81
2022/08/17 00:35:54;;;;;;;6.00;5.30;;;25.20;40.60;;;;;;5069427;28;20477;-81
2022/08/17 00:38:24;;;;;;;6.40;5.80;;;25.20;40.40;;;;;;5063135;28;20457;-83
2022/08/17 00:40:55;;;;;;;5.67;5.17;;;25.20;40.80;;;;;;5072517;28;20481;-81
2022/08/17 00:43:30;;;;;;;5.40;5.00;;;25.20;41.20;;;;;;5074045;28;20576;-81
2022/08/17 00:46:01;;;;;;;6.17;5.57;;;25.10;40.90;;;;;;5074529;28;20466;-81
2022/08/17 00:48:30;;;;;;;5.50;5.10;;;25.10;41.30;;;;;;5072742;28;20985;-81
2022/08/17 00:51:05;;;;;;;5.97;5.50;;;25.10;41.20;;;;;;5073415;28;20450;-81
2022/08/17 00:53:37;;;;;;;5.70;5.20;;;25.10;40.50;;;;;;5067376;28;20493;-82
2022/08/17 00:56:10;;;;;;;5.30;4.87;;;25.00;41.00;;;;;;5068908;28;20462;-81
2022/08/17 00:58:39;;;;;;;5.60;5.10;;;25.00;40.90;;;;;;5066339;28;20455;-82
2022/08/17 01:01:09;;;;;;;6.07;5.50;;;25.00;40.40;;;;;;5067036;28;20483;-81
2022/08/17 01:03:39;;;;;;;4.93;4.60;;;24.90;39.90;;;;;;5067564;28;20466;-81
2022/08/17 01:06:08;;;;;;;5.20;4.70;;;24.90;40.40;;;;;;5073111;28;21017;-83
2022/08/17 01:08:39;;;;;;;5.40;5.00;;;24.90;42.60;;;;;;5073903;28;20465;-81
2022/08/17 01:11:08;;;;;;;4.83;4.53;;;24.90;41.10;;;;;;5068720;28;20476;-81
2022/08/17 01:13:39;;;;;;;5.50;5.00;;;24.80;42.00;;;;;;5072314;28;20482;-81
2022/08/17 01:16:15;;;;;;;4.50;4.20;;;24.80;41.00;;;;;;5073669;28;20466;-81
2022/08/17 01:18:46;;;;;;;4.90;4.60;;;24.80;40.00;;;;;;5073533;28;20956;-81
2022/08/17 01:21:22;;;;;;;5.77;5.00;;;24.80;39.90;;;;;;5072543;28;20481;-81
2022/08/17 01:23:51;;;;;;;6.07;5.50;;;24.80;40.20;;;;;;5072844;28;20473;-81
2022/08/17 01:26:20;;;;;;;5.90;5.40;;;24.70;43.00;;;;;;5071156;28;20450;-81
2022/08/17 01:28:49;;;;;;;4.90;4.60;;;24.70;41.60;;;;;;5060969;28;20492;-81
2022/08/17 01:31:23;;;;;;;5.10;4.60;;;24.70;42.70;;;;;;5072790;28;20457;-81
2022/08/17 01:33:51;;;;;;;5.20;4.80;;;24.70;40.20;;;;;;5072584;28;21000;-81
2022/08/17 01:36:20;;;;;;;5.63;5.23;;;24.70;42.20;;;;;;5071150;28;20576;-82
2022/08/17 01:38:48;;;;;;;5.03;4.60;;;24.70;41.40;;;;;;5072834;28;20835;-81
2022/08/17 01:41:21;;;;;;;5.30;5.00;;;24.70;43.50;;;;;;5072409;28;20490;-81
2022/08/17 01:43:53;;;;;;;5.97;5.40;;;24.70;43.10;;;;;;5071867;28;20480;-81
2022/08/17 01:46:25;;;;;;;5.77;5.27;;;24.70;43.40;;;;;;5066723;28;20446;-81
2022/08/17 01:48:55;;;;;;;5.87;5.37;;;24.70;43.30;;;;;;5072984;28;20451;-81
2022/08/17 01:51:24;;;;;;;5.50;5.00;;;24.70;42.80;;;;;;5072885;28;20503;-81
2022/08/17 01:53:56;;;;;;;5.40;4.90;;;24.70;43.00;;;;;;5072639;28;20849;-82
2022/08/17 01:56:26;;;;;;;4.67;4.27;;;24.60;43.10;;;;;;5071450;28;20447;-81
2022/08/17 01:58:54;;;;;;;4.93;4.50;;;24.60;43.50;;;;;;5062542;28;20459;-83
2022/08/17 02:01:25;;;;;;;5.50;5.00;;;24.60;58.20;;;;;;5067571;28;20477;-81
2022/08/17 02:03:54;;;;;;;5.00;4.60;;;24.60;42.20;;;;;;5069066;28;20471;-81
2022/08/17 02:06:29;;;;;;;6.80;5.87;;;24.60;42.70;;;;;;5071815;28;20450;-81
2022/08/17 02:08:59;;;;;;;6.20;5.70;;;24.50;42.00;;;;;;5072076;28;20454;-81
2022/08/17 02:11:33;;;;;;;6.07;5.50;;;24.50;44.50;;;;;;5070740;28;20892;-82
2022/08/17 02:14:01;;;;;;;5.23;4.83;;;24.50;42.00;;;;;;5072177;28;20478;-81
2022/08/17 02:16:32;;;;;;;5.07;4.67;;;24.50;44.00;;;;;;5072173;28;21064;-82
2022/08/17 02:19:07;;;;;;;5.40;4.73;;;24.50;43.40;;;;;;5067938;28;20534;-81
2022/08/17 02:21:36;;;;;;;5.47;5.10;;;24.40;43.20;;;;;;5071608;28;20466;-81
2022/08/17 02:24:05;;;;;;;5.23;4.83;;;24.40;44.50;;;;;;5072117;28;20489;-81
2022/08/17 02:26:35;;;;;;;4.93;4.63;;;24.40;42.90;;;;;;5070747;28;20458;-83
2022/08/17 02:29:03;;;;;;;4.63;4.23;;;24.40;46.70;;;;;;5072062;28;20454;-81
2022/08/17 02:31:32;;;;;;;4.63;4.33;;;24.40;44.40;;;;;;5071824;28;20458;-81
2022/08/17 02:34:00;;;;;;;5.37;4.97;;;24.40;45.20;;;;;;5071645;28;20479;-81
2022/08/17 02:36:33;;;;;;;5.00;4.60;;;24.40;46.20;;;;;;5059217;28;20535;-80
2022/08/17 02:39:02;;;;;;;5.70;5.20;;;24.40;45.60;;;;;;5072043;28;20443;-81
2022/08/17 02:41:31;;;;;;;5.57;5.03;;;24.40;43.80;;;;;;5071119;28;20993;-81
2022/08/17 02:44:01;;;;;;;5.23;4.80;;;24.30;44.10;;;;;;5071683;28;20466;-81
2022/08/17 02:46:31;;;;;;;4.50;4.20;;;24.30;43.30;;;;;;5071014;28;20466;-81
2022/08/17 02:48:59;;;;;;;6.03;5.17;;;24.30;44.30;;;;;;5071794;28;20523;-81
2022/08/17 02:51:28;;;;;;;5.57;5.17;;;24.20;43.90;;;;;;5071590;28;20454;-81
2022/08/17 02:53:56;;;;;;;5.77;5.23;;;24.20;44.10;;;;;;5070974;28;20471;-84
2022/08/17 02:56:44;;;;;;;5.23;4.87;;;24.20;44.30;;;;;;5069161;28;20513;-81
2022/08/17 02:59:14;;;;;;;5.57;4.67;;;24.20;44.20;;;;;;5070337;28;20439;-82
2022/08/17 03:01:42;;;;;;;5.10;4.70;;;24.20;44.80;;;;;;5070876;28;21021;-81
2022/08/17 03:04:10;;;;;;;5.10;4.80;;;24.20;45.00;;;;;;5070610;28;20536;-81
2022/08/17 03:06:38;;;;;;;6.17;5.57;;;24.10;43.60;;;;;;5071004;28;20451;-82
2022/08/17 03:09:07;;;;;;;6.17;5.23;;;24.10;44.40;;;;;;5067801;28;20454;-81
2022/08/17 03:11:35;;;;;;;5.23;4.83;;;24.10;44.90;;;;;;5070824;28;20478;-81
2022/08/17 03:14:03;;;;;;;4.83;4.53;;;24.10;48.00;;;;;;5070732;28;20478;-82
2022/08/17 03:16:33;;;;;;;4.87;4.53;;;24.10;46.20;;;;;;5069434;28;20463;-82
2022/08/17 03:19:01;;;;;;;5.00;4.60;;;24.10;45.50;;;;;;5069140;28;20450;-81
2022/08/17 03:21:29;;;;;;;5.73;5.27;;;24.20;45.90;;;;;;5071386;28;20458;-81
2022/08/17 03:23:57;;;;;;;5.90;5.50;;;24.20;46.40;;;;;;5070959;28;20490;-81
2022/08/17 03:26:26;;;;;;;6.60;6.10;;;24.10;46.40;;;;;;5065092;28;21248;-82
2022/08/17 03:28:57;;;;;;;5.83;5.33;;;24.10;45.60;;;;;;5065634;28;20970;-81
2022/08/17 03:31:25;;;;;;;5.10;4.70;;;24.10;58.70;;;;;;5070772;28;20459;-81
2022/08/17 03:33:55;;;;;;;5.40;4.90;;;24.10;47.50;;;;;;5070452;28;20462;-82
2022/08/17 03:36:23;;;;;;;5.20;4.80;;;24.10;45.10;;;;;;5068613;28;20459;-80
2022/08/17 03:38:51;;;;;;;4.67;4.37;;;24.10;45.30;;;;;;5070803;28;20455;-81
2022/08/17 03:41:21;;;;;;;5.30;4.90;;;24.10;45.30;;;;;;5070256;28;20470;-81
2022/08/17 03:43:50;;;;;;;5.30;4.80;;;24.00;44.90;;;;;;5063279;28;20479;-81
2022/08/17 03:57:31;;;;;;;5.40;5.00;;;23.90;43.00;;;;;;5005192;28;20456;-81
2022/08/17 03:59:59;;;;;;;6.47;5.87;;;23.90;43.40;;;;;;5068673;28;20470;-81
2022/08/17 04:02:31;;;;;;;4.63;4.23;;;23.90;48.50;;;;;;5062780;28;20509;-81
2022/08/17 04:05:01;;;;;;;5.00;4.70;;;23.80;45.00;;;;;;5066948;28;20477;-81
2022/08/17 04:07:31;;;;;;;6.43;5.67;;;23.80;43.60;;;;;;5056611;28;20450;-81
2022/08/17 04:09:59;;;;;;;6.07;5.60;;;23.80;43.50;;;;;;5058517;28;20478;-81
2022/08/17 04:12:42;;;;;;;5.33;4.83;;;23.80;45.70;;;;;;5065747;28;20991;-81
2022/08/17 04:15:12;;;;;;;6.70;5.20;;;23.80;43.20;;;;;;5055977;28;20914;-81
2022/08/17 04:17:43;;;;;;;6.10;4.67;;;23.70;45.80;;;;;;5052215;28;20543;-81
2022/08/17 04:20:14;;;;;;;5.30;4.80;;;23.70;43.70;;;;;;5062052;28;20459;-81
2022/08/17 04:22:56;;;;;;;4.27;3.97;;;23.70;43.90;;;;;;5068981;28;20485;-81
2022/08/17 04:25:26;;;;;;;4.40;4.00;;;23.80;42.40;;;;;;5057136;28;20466;-80
2022/08/17 04:27:54;;;;;;;6.17;5.57;;;23.80;44.00;;;;;;5057649;28;20448;-81
2022/08/17 04:30:23;;;;;;;4.83;4.47;;;23.80;45.10;;;;;;5066028;28;20462;-81
2022/08/17 04:32:54;;;;;;;8.33;7.53;;;23.80;46.10;;;;;;5058140;28;21060;-82
2022/08/17 04:35:41;;;;;;;8.87;5.67;;;23.80;43.50;;;;;;5063416;28;20806;-81
2022/08/17 04:38:12;;;;;;;5.00;4.57;;;23.70;45.40;;;;;;5061285;28;20458;-81
2022/08/17 04:43:36;;;;;;;5.63;5.23;;;23.70;44.30;;;;;;5032457;28;20498;-81
2022/08/17 04:46:07;;;;;;;4.93;4.43;;;23.70;43.60;;;;;;5057487;28;20462;-81
2022/08/17 04:48:37;;;;;;;7.30;4.87;;;23.70;45.20;;;;;;5061821;28;21069;-81
2022/08/17 04:51:10;;;;;;;4.30;4.00;;;23.80;45.30;;;;;;5060970;28;20453;-81
2022/08/17 04:53:41;;;;;;;5.57;5.10;;;23.80;46.80;;;;;;5054940;28;20502;-82
2022/08/17 04:56:10;;;;;;;6.30;5.80;;;23.80;49.60;;;;;;5054619;28;20459;-81
2022/08/17 04:58:45;;;;;;;7.23;5.50;;;23.80;47.40;;;;;;5056609;28;20445;-81
2022/08/17 05:01:13;;;;;;;5.90;5.40;;;23.90;47.70;;;;;;5068537;28;20447;-81
2022/08/17 05:03:43;;;;;;;5.30;4.90;;;23.90;49.00;;;;;;5055543;28;20497;-81
2022/08/17 05:06:12;;;;;;;5.80;5.30;;;23.90;48.80;;;;;;5057893;28;20869;-81
2022/08/17 05:08:41;;;;;;;5.77;5.37;;;23.90;52.20;;;;;;5059809;28;20475;-80
2022/08/17 05:11:09;;;;;;;7.23;5.90;;;23.90;52.50;;;;;;5049668;28;20505;-81
2022/08/17 05:13:37;;;;;;;6.27;5.57;;;23.90;53.20;;;;;;5058513;28;20489;-81
2022/08/17 05:16:06;;;;;;;6.30;5.80;;;24.00;53.60;;;;;;5062105;28;20454;-81
2022/08/17 05:18:34;;;;;;;6.50;4.73;;;24.00;52.80;;;;;;5057663;28;20458;-81
2022/08/17 05:21:02;;;;;;;6.07;5.27;;;24.00;54.80;;;;;;5069973;28;20451;-81
2022/08/17 05:23:32;;;;;;;5.23;4.73;;;24.10;54.20;;;;;;5071201;28;20490;-81
2022/08/17 05:26:12;;;;;;;6.20;5.00;;;24.10;59.60;;;;;;5065768;28;20461;-81
2022/08/17 05:28:56;;;;;;;5.83;5.33;;;24.10;53.50;;;;;;5073420;28;20488;-81
2022/08/17 05:31:28;;;;;;;5.40;5.00;;;24.20;52.60;;;;;;5072037;28;20455;-81
2022/08/17 05:33:56;;;;;;;5.47;5.00;;;24.20;54.50;;;;;;5072540;28;20465;-81
2022/08/17 05:36:25;;;;;;;7.20;5.33;;;24.20;55.80;;;;;;5064235;28;20459;-81
2022/08/17 05:39:13;;;;;;;7.73;5.70;;;24.10;55.20;;;;;;5070519;28;20468;-83
2022/08/17 05:41:44;;;;;;;6.73;5.60;;;24.10;53.90;;;;;;5072709;28;20494;-81
2022/08/17 05:44:12;;;;;;;5.27;4.87;;;24.20;52.10;;;;;;5073071;28;20497;-81
2022/08/17 05:46:44;;;;;;;5.77;5.27;;;24.20;55.10;;;;;;5073674;28;20447;-81
2022/08/17 05:49:14;;;;;;;6.13;5.53;;;24.30;51.30;;;;;;5073564;28;20443;-81
2022/08/17 05:52:08;;;;;;;5.60;5.10;;;24.30;51.20;;;;;;5073635;28;20881;-81
2022/08/17 05:54:48;;;;;;;5.87;4.83;;;24.30;50.10;;;;;;5060302;28;20504;-81
2022/08/17 05:57:41;;;;;;;4.37;3.80;;;24.40;50.20;;;;;;5071303;28;20462;-81
2022/08/17 06:00:23;;;;;;;5.67;5.27;;;24.40;49.20;;;;;;5071233;28;20483;-81
2022/08/17 06:03:18;;;;;;;5.90;4.57;;;24.40;50.00;;;;;;5073772;28;20528;-81
2022/08/17 06:06:07;;;;;;;5.00;4.60;;;24.50;49.90;;;;;;5073001;28;20450;-81
2022/08/17 06:08:46;;;;;;;6.10;5.23;;;24.50;50.40;;;;;;5073985;28;20552;-81
2022/08/17 06:11:27;;;;;;;4.93;4.27;;;24.60;51.80;;;;;;5071681;28;20920;-81
2022/08/17 06:14:13;;;;;;;5.17;4.77;;;24.60;53.10;;;;;;5071742;28;21010;-82
2022/08/17 06:16:45;;;;;;;4.60;4.30;;;24.70;53.10;;;;;;5072437;28;20981;-81
2022/08/17 06:19:18;;;;;;;5.10;4.67;;;24.80;54.00;;;;;;5060406;28;20462;-81
2022/08/17 06:21:50;;;;;;;4.93;4.27;;;24.90;54.50;;;;;;5072894;28;20964;-81
2022/08/17 06:24:27;;;;;;;5.63;5.13;;;24.90;53.80;;;;;;5072404;28;20486;-81
2022/08/17 06:27:06;;;;;;;6.60;5.20;;;25.00;52.70;;;;;;5072436;28;20458;-80
2022/08/17 06:29:41;;;;;;;5.17;4.77;;;25.10;54.00;;;;;;5071655;28;20476;-82
2022/08/17 06:32:11;;;;;;;5.47;4.67;;;25.20;54.90;;;;;;5072943;28;20457;-80
2022/08/17 06:34:43;;;;;;;4.83;4.30;;;25.30;56.50;;;;;;5067740;28;21130;-83
2022/08/17 06:37:25;;;;;;;5.40;4.67;;;25.30;58.70;;;;;;5073153;28;20510;-80
2022/08/17 06:40:02;;;;;;;4.37;4.03;;;25.50;59.20;;;;;;5071335;28;20481;-81
2022/08/17 06:42:43;;;;;;;5.57;4.60;;;25.50;59.70;;;;;;5072295;28;20521;-81
2022/08/17 06:45:36;;;;;;;6.73;5.03;;;25.60;59.20;;;;;;5072117;28;20515;-81
2022/08/17 06:48:23;;;;;;;4.77;4.37;;;25.60;58.10;;;;;;5065881;28;20456;-81
2022/08/17 06:50:54;;;;;;;5.07;4.67;;;25.70;57.70;;;;;;5065766;28;20469;-81
2022/08/17 06:53:26;;;;;;;4.87;4.47;;;25.70;57.10;;;;;;5072224;28;20458;-81
2022/08/17 06:55:59;;;;;;;5.23;4.83;;;25.60;56.50;;;;;;5070109;28;20527;-80
2022/08/17 06:58:32;;;;;;;6.20;4.10;;;25.70;57.50;;;;;;5071291;28;20500;-81
2022/08/17 07:01:05;;;;;;;4.70;3.80;;;25.70;59.50;;;;;;5060096;28;20451;-82
2022/08/17 07:03:38;;;;;;;5.40;4.77;;;25.70;59.60;;;;;;5072665;28;20500;-81
2022/08/17 07:06:12;;;;;;;4.43;4.13;;;25.70;60.90;;;;;;5072469;28;20454;-80
2022/08/17 07:08:51;;;;;;;7.13;4.17;;;25.70;64.50;;;;;;5059321;28;20462;-81
2022/08/17 07:11:25;;;;;;;4.47;4.07;;;25.80;63.50;;;;;;5069739;28;21013;-81
2022/08/17 07:14:25;;;;;;;4.47;4.17;;;25.90;61.90;;;;;;5069946;28;20477;-82
2022/08/17 07:16:56;;;;;;;4.10;3.67;;;26.00;79.20;;;;;;5071484;28;20977;-81
2022/08/17 07:19:31;;;;;;;3.87;3.60;;;26.20;83.10;;;;;;5071648;28;20455;-82
2022/08/17 07:22:05;;;;;;;3.83;3.43;;;26.30;66.40;;;;;;5070162;28;20467;-81
2022/08/17 07:24:38;;;;;;;4.50;4.07;;;26.40;61.90;;;;;;5065061;28;20626;-81
2022/08/17 07:27:13;;;;;;;3.30;3.10;;;26.40;66.00;;;;;;5070863;28;20480;-81
2022/08/17 07:29:48;;;;;;;4.60;3.47;;;26.50;64.30;;;;;;5070622;28;20457;-81
2022/08/17 07:32:21;;;;;;;3.47;3.27;;;26.60;63.40;;;;;;5070937;28;20443;-81
2022/08/17 07:35:14;;;;;;;3.27;3.07;;;26.70;62.60;;;;;;5069598;28;20994;-78
2022/08/17 07:37:45;;;;;;;3.57;3.37;;;26.80;60.60;;;;;;5069000;28;20447;-77
2022/08/17 07:40:20;;;;;;;4.00;3.70;;;26.90;63.00;;;;;;5068898;28;20464;-77
2022/08/17 07:43:16;;;;;;;3.83;3.53;;;27.00;62.30;;;;;;5066233;28;20475;-77
2022/08/17 07:48:48;;;;;;;4.40;4.10;;;27.10;64.50;;;;;;5061547;28;20455;-77
2022/08/17 07:51:28;;;;;;;3.83;3.50;;;27.00;63.30;;;;;;5066790;28;20515;-81
2022/08/17 07:53:58;;;;;;;3.53;3.33;;;27.00;64.40;;;;;;5070837;28;20470;-81
2022/08/17 07:56:45;;;;;;;4.90;4.10;;;27.00;65.20;;;;;;5069454;28;20462;-80
2022/08/17 07:59:19;;;;;;;3.67;3.37;;;27.00;63.10;;;;;;5060484;28;20967;-80
2022/08/17 08:02:20;;;;;;;3.70;3.40;;;27.00;64.60;;;;;;5071293;28;20457;-81
2022/08/17 08:05:03;;;;;;;3.87;3.67;;;27.00;63.60;;;;;;5069956;28;20997;-80
2022/08/17 08:07:42;;;;;;;4.13;3.83;;;27.00;64.80;;;;;;5070933;28;20462;-81
2022/08/17 08:10:13;;;;;;;4.47;4.17;;;27.00;64.20;;;;;;5069154;28;20545;-81
2022/08/17 08:12:43;;;;;;;4.37;4.00;;;27.00;63.30;;;;;;5069917;28;20470;-83
2022/08/17 08:15:17;;;;;;;3.87;3.57;;;27.00;64.20;;;;;;5065206;28;20452;-81
2022/08/17 08:17:51;;;;;;;4.90;4.50;;;27.00;65.70;;;;;;5058394;28;20909;-81
2022/08/17 08:20:26;;;;;;;4.67;4.27;;;27.00;64.40;;;;;;5070116;28;20537;-81
2022/08/17 08:23:22;;;;;;;4.90;4.60;;;27.00;65.10;;;;;;5070070;28;20507;-81
2022/08/17 08:26:01;;;;;;;4.57;4.17;;;27.00;65.00;;;;;;5069645;28;20508;-81
2022/08/17 08:28:36;;;;;;;5.20;4.20;;;27.00;63.00;;;;;;5070359;28;20458;-81
2022/08/17 08:31:11;;;;;;;3.83;3.63;;;26.90;57.60;;;;;;5069952;28;20476;-81
2022/08/17 08:33:53;;;;;;;4.80;4.50;;;26.90;58.10;;;;;;5059008;28;20497;-81
2022/08/17 08:36:37;;;;;;;3.83;3.60;;;26.90;55.90;;;;;;5070149;28;20466;-81
2022/08/17 08:39:36;;;;;;;4.30;3.90;;;26.90;57.00;;;;;;5070243;28;20481;-80
2022/08/17 08:42:12;;;;;;;4.10;3.70;;;26.70;54.50;;;;;;5070228;28;20446;-81
2022/08/17 08:44:50;;;;;;;4.33;3.93;;;26.70;56.30;;;;;;5068808;28;20515;-80
2022/08/17 08:47:51;;;;;;;4.40;4.00;;;26.80;56.40;;;;;;5054483;28;20455;-81
2022/08/17 08:50:29;;;;;;;3.50;3.30;;;26.80;57.30;;;;;;5052275;28;20451;-81
2022/08/17 08:53:20;;;;;;;4.97;4.13;;;26.80;56.20;;;;;;5069749;28;20514;-81
2022/08/17 08:55:54;;;;;;;3.67;3.37;;;26.80;54.70;;;;;;5068524;28;20458;-80
2022/08/17 08:58:34;;;;;;;3.83;3.63;;;26.80;55.00;;;;;;5072660;28;20461;-82
2022/08/17 09:01:18;;;;;;;3.70;3.40;;;26.80;56.20;;;;;;5074992;28;20456;-80
2022/08/17 09:03:59;;;;;;;3.90;3.50;;;26.80;56.40;;;;;;5071493;28;21170;-80
2022/08/17 09:07:00;;;;;;;5.23;4.90;;;26.80;57.50;;;;;;5066198;28;21100;-81
2022/08/17 09:09:40;;;;;;;5.10;4.60;;;26.80;58.20;;;;;;5073767;28;20466;-81
2022/08/17 09:12:15;;;;;;;4.07;3.73;;;26.80;58.00;;;;;;5072573;28;20476;-81
2022/08/17 09:14:51;;;;;;;4.43;4.03;;;26.80;57.80;;;;;;5072797;28;20461;-81
2022/08/17 09:17:24;;;;;;;4.57;4.20;;;26.80;59.20;;;;;;5072044;28;20446;-81
2022/08/17 09:19:59;;;;;;;6.30;4.00;;;26.80;62.60;;;;;;5071784;28;20450;-81
2022/08/17 09:22:35;;;;;;;4.13;3.83;;;26.80;66.90;;;;;;5073105;28;20465;-81
2022/08/17 09:25:08;;;;;;;3.53;3.23;;;26.80;67.70;;;;;;5071872;28;20462;-81
2022/08/17 09:27:50;;;;;;;2.97;2.77;;;26.70;68.70;;;;;;5073219;28;20466;-81
2022/08/17 09:30:21;;;;;;;3.87;3.57;;;26.80;69.80;;;;;;5072568;28;20439;-81
2022/08/17 09:32:57;;;;;;;3.97;3.67;;;26.70;67.30;;;;;;5072973;28;20535;-80
2022/08/17 09:35:36;;;;;;;5.93;3.50;;;26.70;65.00;;;;;;5073262;28;20438;-80
2022/08/17 09:38:19;;;;;;;3.80;3.40;;;26.70;70.90;;;;;;5055382;28;20540;-81
2022/08/17 09:40:52;;;;;;;3.13;2.93;;;26.70;70.90;;;;;;5072276;28;20536;-81
2022/08/17 09:43:30;;;;;;;4.00;3.20;;;26.60;71.80;;;;;;5058967;28;20524;-80
2022/08/17 09:46:02;;;;;;;3.80;3.50;;;26.60;74.80;;;;;;5072839;28;20476;-81
2022/08/17 09:48:43;;;;;;;3.83;3.43;;;26.60;78.00;;;;;;5072378;28;20526;-81
2022/08/17 09:51:19;;;;;;;3.40;3.20;;;26.60;85.20;;;;;;5073639;28;20545;-80
2022/08/17 09:53:50;;;;;;;3.93;3.73;;;26.60;90.70;;;;;;5059906;28;20525;-81
2022/08/17 09:56:35;;;;;;;4.57;4.17;;;26.60;96.00;;;;;;5072317;28;20443;-81
2022/08/17 09:59:22;;;;;;;4.37;4.00;;;26.60;95.30;;;;;;5062890;28;20439;-81
2022/08/17 10:01:59;;;;;;;4.07;3.83;;;26.50;92.20;;;;;;5072248;28;20434;-81
2022/08/17 10:04:46;;;;;;;4.90;4.53;;;26.60;94.30;;;;;;5072879;28;20481;-81
2022/08/17 10:07:20;;;;;;;3.97;3.63;;;26.60;93.30;;;;;;5072517;28;20488;-81
2022/08/17 10:10:02;;;;;;;3.40;3.10;;;26.50;94.50;;;;;;5072154;28;20462;-81
2022/08/17 10:12:39;;;;;;;3.70;3.40;;;26.60;96.50;;;;;;5070919;28;20467;-81
2022/08/17 10:15:23;;;;;;;3.40;3.20;;;26.60;95.70;;;;;;5067752;28;20461;-81
2022/08/17 10:18:15;;;;;;;3.90;3.50;;;26.50;95.80;;;;;;5072545;28;20466;-81
2022/08/17 10:26:11;;;;;;;3.47;3.23;;;26.60;96.80;;;;;;5070674;28;20462;-80
2022/08/17 10:26:37;;;;;;;3.47;3.17;;;26.60;94.00;;;;;;5071460;28;20531;-80
2022/08/17 10:29:31;;;;;;;3.33;3.13;;;26.60;92.70;;;;;;5072001;28;20553;-81
2022/08/17 10:32:25;;;;;;;3.43;3.13;;;26.60;90.40;;;;;;5060694;28;20452;-81
2022/08/17 10:35:05;;;;;;;3.10;2.90;;;26.60;89.80;;;;;;5071927;28;20504;-81
2022/08/17 10:37:47;;;;;;;3.87;3.67;;;26.60;90.40;;;;;;5071763;28;20454;-81
2022/08/17 10:40:26;;;;;;;3.00;2.80;;;26.60;93.10;;;;;;5071370;28;20458;-81
2022/08/17 10:43:00;;;;;;;3.90;3.60;;;26.60;90.80;;;;;;5065206;28;20895;-81
2022/08/17 10:45:33;;;;;;;3.60;3.30;;;26.60;92.20;;;;;;5071549;28;20946;-80
2022/08/17 10:48:27;;;;;;;4.10;3.70;;;26.60;99.00;;;;;;5068322;28;20897;-81
2022/08/17 10:51:02;;;;;;;5.97;4.00;;;26.50;99.90;;;;;;5066245;28;20443;-80
2022/08/17 10:53:55;;;;;;;3.50;3.20;;;26.40;99.90;;;;;;5071573;28;20484;-80
2022/08/17 10:56:40;;;;;;;3.83;3.53;;;26.40;99.90;;;;;;5055239;28;20821;-80
2022/08/17 10:59:09;;;;;;;3.07;2.77;;;26.30;99.90;;;;;;5071775;28;20469;-81
2022/08/17 11:02:04;;;;;;;4.33;3.70;;;26.30;99.90;;;;;;5072093;28;20454;-82
2022/08/17 11:04:48;;;;;;;4.87;3.33;;;26.20;99.90;;;;;;5072115;28;20970;-81
2022/08/17 11:07:24;;;;;;;3.57;3.37;;;26.20;99.90;;;;;;5067063;28;20493;-81
2022/08/17 11:10:16;;;;;;;3.37;3.10;;;26.20;99.90;;;;;;5071608;28;20458;-81
2022/08/17 11:12:59;;;;;;;3.50;3.20;;;26.20;99.90;;;;;;5071247;28;20525;-81
2022/08/17 11:15:46;;;;;;;3.90;3.60;;;26.20;99.90;;;;;;5070109;28;20550;-81
2022/08/17 11:18:36;;;;;;;3.80;3.50;;;26.20;99.90;;;;;;5071724;28;20454;-81
2022/08/17 11:21:21;;;;;;;4.80;3.93;;;26.10;99.90;;;;;;5070792;28;20962;-81
2022/08/17 11:24:13;;;;;;;4.93;3.77;;;26.00;99.90;;;;;;5070267;28;20470;-81
2022/08/17 11:26:46;;;;;;;8.47;4.40;;;26.00;99.90;;;;;;5070773;28;21002;-81
2022/08/17 11:29:22;;;;;;;6.07;4.10;;;25.90;99.90;;;;;;5071423;28;20461;-81
2022/08/17 11:32:03;;;;;;;5.30;4.10;;;25.90;99.90;;;;;;5071211;28;20446;-80
2022/08/17 11:34:32;;;;;;;6.70;4.70;;;25.80;99.90;;;;;;5070663;28;20450;-80
2022/08/17 11:37:34;;;;;;;4.80;4.20;;;25.90;99.90;;;;;;5070835;28;20466;-80
2022/08/17 11:40:16;;;;;;;3.40;3.10;;;25.90;99.90;;;;;;5061729;28;20542;-83
2022/08/17 11:43:15;;;;;;;4.73;4.33;;;25.90;99.90;;;;;;5068987;28;20553;-81
2022/08/17 11:46:00;;;;;;;3.83;3.40;;;25.90;99.90;;;;;;5066235;28;20453;-81
2022/08/17 11:51:55;;;;;;;4.33;3.93;;;25.90;99.90;;;;;;5071501;28;21064;-81
2022/08/17 11:54:44;;;;;;;4.47;4.07;;;25.90;99.90;;;;;;5071079;28;20478;-81
2022/08/17 11:57:59;;;;;;;3.97;3.33;;;25.90;99.90;;;;;;5064107;28;20446;-81
2022/08/17 12:00:53;;;;;;;4.80;4.50;;;25.90;99.90;;;;;;5069080;28;20743;-80
2022/08/17 12:03:41;;;;;;;4.53;4.13;;;25.90;99.90;;;;;;5070386;28;20536;-81
2022/08/17 12:06:30;;;;;;;4.53;4.10;;;25.90;99.90;;;;;;5069523;28;20454;-80
2022/08/17 12:09:06;;;;;;;5.37;3.77;;;25.90;99.90;;;;;;5060162;28;20511;-81
2022/08/17 12:11:41;;;;;;;3.23;3.03;;;26.00;99.90;;;;;;5069892;28;20439;-80
2022/08/17 12:14:32;;;;;;;4.37;3.50;;;26.00;99.90;;;;;;5057367;28;20475;-81
2022/08/17 12:17:22;;;;;;;3.67;3.40;;;26.10;99.90;;;;;;5070499;28;20461;-81
2022/08/17 12:20:16;;;;;;;4.50;4.10;;;26.10;99.90;;;;;;5070371;28;20450;-81
2022/08/17 12:22:55;;;;;;;3.70;3.40;;;26.20;99.90;;;;;;5070426;28;20535;-81
2022/08/17 12:25:31;;;;;;;3.80;3.50;;;26.20;99.90;;;;;;5070378;28;20503;-81
2022/08/17 12:28:00;;;;;;;3.90;3.60;;;26.20;99.90;;;;;;5069534;28;20490;-81
2022/08/17 12:30:36;;;;;;;5.00;4.60;;;26.20;99.90;;;;;;5062846;28;20868;-81
2022/08/17 12:33:11;;;;;;;4.90;4.50;;;26.20;99.90;;;;;;5067812;28;20530;-81
2022/08/17 12:35:39;;;;;;;5.20;4.60;;;26.20;99.90;;;;;;5067295;28;20446;-81
2022/08/17 12:38:14;;;;;;;5.30;4.90;;;26.00;99.90;;;;;;5069469;28;20431;-81
2022/08/17 12:41:25;;;;;;;5.00;4.70;;;26.40;99.90;;;;;;5067674;28;21016;-81
2022/08/17 12:43:57;;;;;;;4.33;3.93;;;26.40;99.90;;;;;;5067905;28;20470;-81
2022/08/17 12:46:25;;;;;;;4.53;3.33;;;26.40;99.90;;;;;;5057906;28;20529;-80
2022/08/17 12:48:54;;;;;;;3.63;3.43;;;26.40;99.90;;;;;;5068087;28;20454;-81
2022/08/17 12:51:28;;;;;;;3.50;3.30;;;26.40;99.90;;;;;;5069179;28;20447;-81
2022/08/17 12:53:58;;;;;;;3.73;3.50;;;26.50;99.90;;;;;;5069202;28;20482;-80
2022/08/17 12:56:28;;;;;;;3.30;3.07;;;26.60;99.90;;;;;;5068664;28;20502;-79
2022/08/17 12:58:57;;;;;;;3.30;3.10;;;26.60;99.90;;;;;;5069387;28;20485;-81
2022/08/17 13:01:26;;;;;;;3.47;3.17;;;26.70;99.90;;;;;;5067322;28;20982;-80
2022/08/17 13:03:58;;;;;;;4.83;3.50;;;26.70;99.90;;;;;;5067560;28;20482;-82
2022/08/17 13:06:30;;;;;;;3.20;2.93;;;26.80;99.90;;;;;;5067229;28;20472;-81
2022/08/17 13:09:11;;;;;;;2.90;2.70;;;26.90;99.90;;;;;;5068288;28;20475;-81
2022/08/17 13:11:48;;;;;;;2.90;2.67;;;26.90;99.90;;;;;;5067911;28;21422;-81
2022/08/17 13:14:17;;;;;;;3.53;3.23;;;27.00;99.90;;;;;;5068596;28;20476;-81
2022/08/17 13:16:52;;;;;;;3.17;2.83;;;27.00;99.90;;;;;;5055500;28;21202;-81
2022/08/17 13:19:21;;;;;;;2.93;2.73;;;27.00;99.90;;;;;;5055239;28;20464;-81
2022/08/17 13:22:11;;;;;;;3.30;3.10;;;27.10;99.90;;;;;;5060204;28;20449;-81
2022/08/17 13:24:53;;;;;;;3.17;2.87;;;27.10;99.90;;;;;;5067059;28;20458;-81
2022/08/17 13:27:23;;;;;;;3.83;3.10;;;27.20;99.90;;;;;;5068081;28;20514;-80
2022/08/17 13:29:56;;;;;;;3.10;2.90;;;27.20;95.90;;;;;;5068540;28;20478;-81
2022/08/17 13:32:35;;;;;;;2.67;2.47;;;27.30;97.40;;;;;;5068094;28;20989;-81
2022/08/17 13:35:36;;;;;;;3.17;2.97;;;27.30;92.70;;;;;;5068482;28;21216;-81
2022/08/17 13:38:09;;;;;;;3.20;3.00;;;27.30;95.20;;;;;;5057449;28;20546;-80
2022/08/17 13:40:47;;;;;;;2.70;2.60;;;27.30;93.70;;;;;;5068024;28;20984;-81
2022/08/17 13:43:48;;;;;;;3.73;3.43;;;27.40;92.00;;;;;;5069114;28;20485;-81
2022/08/17 13:46:21;;;;;;;3.60;3.17;;;27.50;94.10;;;;;;5060521;28;20646;-80
2022/08/17 13:48:59;;;;;;;2.90;2.70;;;27.40;92.40;;;;;;5071692;28;20884;-81
2022/08/17 13:51:41;;;;;;;3.77;3.47;;;27.50;91.40;;;;;;5072127;28;20469;-80
2022/08/17 13:54:23;;;;;;;3.67;3.47;;;27.50;90.30;;;;;;5071910;28;21000;-81
2022/08/17 13:57:00;;;;;;;4.00;3.60;;;27.50;89.50;;;;;;5068320;28;20503;-81